Time;durP1;ratioP1;P1;durP2;ratioP2;P2;SDS_P1;SDS_P2;PMS_P1;PMS_P2;Temp;Humidity;BMP_temperature;BMP_pressure;BME280_temperature;BME280_humidity;BME280_pressure;Samples;Min_cycle;Max_cycle;Signal;HPM_P1;HPM_P2
2021/03/15 00:02:18;;;;;;;;;2.00;2.00;;;;;;;;5023365;28;11493;-85
2021/03/15 00:04:45;;;;;;;;;2.25;2.00;;;;;;;;5021780;28;11585;-86
2021/03/15 00:07:12;;;;;;;;;2.00;2.00;;;;;;;;5020827;28;11666;-83
2021/03/15 00:09:40;;;;;;;;;2.00;2.00;;;;;;;;5022705;28;11490;-82
2021/03/15 00:12:08;;;;;;;;;1.75;1.75;;;;;;;;5014077;28;11563;-86
2021/03/15 00:14:35;;;;;;;;;2.50;1.00;;;;;;;;5018452;28;11495;-85
2021/03/15 00:17:02;;;;;;;;;1.00;1.00;;;;;;;;5022536;28;11457;-82
2021/03/15 00:19:29;;;;;;;;;2.50;2.50;;;;;;;;5022153;28;11219;-85
2021/03/15 00:21:56;;;;;;;;;3.50;2.75;;;;;;;;5017273;28;11483;-85
2021/03/15 00:24:23;;;;;;;;;0.00;0.00;;;;;;;;5021659;28;11606;-83
2021/03/15 00:26:51;;;;;;;;;2.00;2.00;;;;;;;;5018609;28;11250;-87
2021/03/15 00:29:21;;;;;;;;;4.00;4.00;;;;;;;;5017019;28;11495;-86
2021/03/15 00:31:48;;;;;;;;;2.00;2.00;;;;;;;;5021774;28;11579;-83
2021/03/15 00:34:15;;;;;;;;;2.75;2.75;;;;;;;;5022232;28;11495;-83
2021/03/15 00:36:42;;;;;;;;;1.50;1.50;;;;;;;;5022655;28;11486;-84
2021/03/15 00:39:09;;;;;;;;;4.00;2.75;;;;;;;;5022013;28;11624;-81
2021/03/15 00:41:36;;;;;;;;;3.75;3.00;;;;;;;;5021634;28;11470;-76
2021/03/15 00:44:05;;;;;;;;;5.50;5.00;;;;;;;;5019050;28;11991;-81
2021/03/15 00:46:31;;;;;;;;;5.75;1.75;;;;;;;;5021647;28;11511;-80
2021/03/15 00:48:58;;;;;;;;;5.25;2.75;;;;;;;;5018310;28;11470;-75
2021/03/15 00:51:25;;;;;;;;;5.25;5.25;;;;;;;;5020862;28;11489;-77
2021/03/15 00:53:52;;;;;;;;;6.25;4.50;;;;;;;;5022083;28;11556;-81
2021/03/15 00:56:19;;;;;;;;;5.75;2.75;;;;;;;;5019688;28;11590;-82
2021/03/15 00:58:45;;;;;;;;;6.00;3.00;;;;;;;;5015650;28;11489;-82
2021/03/15 01:01:15;;;;;;;;;3.50;3.50;;;;;;;;5015995;28;11414;-81
2021/03/15 01:03:42;;;;;;;;;5.50;5.50;;;;;;;;5022388;28;12260;-81
2021/03/15 01:06:11;;;;;;;;;7.50;6.00;;;;;;;;5022718;28;11480;-86
2021/03/15 01:08:38;;;;;;;;;5.00;5.00;;;;;;;;5021804;28;11545;-78
2021/03/15 01:11:05;;;;;;;;;7.00;6.00;;;;;;;;5011136;28;11698;-82
2021/03/15 01:13:32;;;;;;;;;9.50;6.50;;;;;;;;5020817;28;11581;-75
2021/03/15 01:15:59;;;;;;;;;7.25;6.50;;;;;;;;5022895;28;11631;-83
2021/03/15 01:18:27;;;;;;;;;12.50;6.75;;;;;;;;5020539;28;11558;-79
2021/03/15 01:20:54;;;;;;;;;6.50;6.50;;;;;;;;5023313;28;11685;-81
2021/03/15 01:23:22;;;;;;;;;9.00;9.00;;;;;;;;5022451;28;12224;-78
2021/03/15 01:25:49;;;;;;;;;9.00;8.00;;;;;;;;5021014;28;12360;-76
2021/03/15 01:28:18;;;;;;;;;9.25;7.00;;;;;;;;5011369;28;11521;-77
2021/03/15 01:30:46;;;;;;;;;10.50;7.50;;;;;;;;5021861;28;11411;-80
2021/03/15 01:33:14;;;;;;;;;10.00;7.00;;;;;;;;5016622;28;11527;-81
2021/03/15 01:35:42;;;;;;;;;11.00;7.50;;;;;;;;5024595;28;11510;-78
2021/03/15 01:38:09;;;;;;;;;14.75;9.00;;;;;;;;5023411;28;11505;-82
2021/03/15 01:40:37;;;;;;;;;10.50;9.50;;;;;;;;5025845;28;11467;-81
2021/03/15 01:43:05;;;;;;;;;7.50;7.25;;;;;;;;5024313;28;11604;-76
2021/03/15 01:45:32;;;;;;;;;12.50;9.00;;;;;;;;5022049;28;12281;-80
2021/03/15 01:48:00;;;;;;;;;8.25;8.00;;;;;;;;5022271;28;11493;-75
2021/03/15 01:50:27;;;;;;;;;11.25;9.50;;;;;;;;5024467;28;12291;-79
2021/03/15 01:52:56;;;;;;;;;11.00;10.25;;;;;;;;5019383;28;11515;-80
2021/03/15 01:55:23;;;;;;;;;11.50;7.00;;;;;;;;5016645;28;11634;-78
2021/03/15 01:57:51;;;;;;;;;9.75;9.75;;;;;;;;5023019;28;11576;-85
2021/03/15 02:00:20;;;;;;;;;10.00;9.25;;;;;;;;5024926;28;11546;-80
2021/03/15 02:02:51;;;;;;;;;14.75;10.50;;;;;;;;5025255;28;11625;-81
2021/03/15 02:05:18;;;;;;;;;7.00;7.00;;;;;;;;5023593;28;11532;-78
2021/03/15 02:07:45;;;;;;;;;6.00;6.00;;;;;;;;5020760;28;11629;-84
2021/03/15 02:10:15;;;;;;;;;13.00;11.00;;;;;;;;5024422;28;12232;-78
2021/03/15 02:12:58;;;;;;;;;8.00;8.00;;;;;;;;5020932;28;11505;-84
2021/03/15 02:15:32;;;;;;;;;11.00;11.00;;;;;;;;5022245;28;11537;-79
2021/03/15 02:18:02;;;;;;;;;5.00;5.00;;;;;;;;5023325;28;11545;-78
2021/03/15 02:20:58;;;;;;;;;24.50;19.25;;;;;;;;5024489;28;11491;-82
2021/03/15 02:23:27;;;;;;;;;14.50;9.00;;;;;;;;5023116;28;11520;-80
2021/03/15 02:26:20;;;;;;;;;14.25;9.25;;;;;;;;5023308;28;11602;-81
2021/03/15 02:29:18;;;;;;;;;10.00;10.00;;;;;;;;5015988;28;11526;-82
2021/03/15 02:32:11;;;;;;;;;12.50;9.50;;;;;;;;5012966;28;11600;-82
2021/03/15 02:34:59;;;;;;;;;9.25;9.25;;;;;;;;5024605;28;12281;-81
2021/03/15 02:37:31;;;;;;;;;13.00;10.00;;;;;;;;5025742;28;11456;-86
2021/03/15 02:40:03;;;;;;;;;15.50;9.75;;;;;;;;5014299;28;11627;-85
2021/03/15 02:42:31;;;;;;;;;10.25;10.25;;;;;;;;5012661;28;11500;-78
2021/03/15 02:44:58;;;;;;;;;13.50;13.50;;;;;;;;5019350;28;11544;-84
2021/03/15 02:47:28;;;;;;;;;11.75;10.50;;;;;;;;5024499;28;11635;-78
2021/03/15 02:49:59;;;;;;;;;10.25;9.75;;;;;;;;5023805;28;11588;-82
2021/03/15 02:52:27;;;;;;;;;13.50;9.25;;;;;;;;5022333;28;11523;-82
2021/03/15 02:54:55;;;;;;;;;16.25;14.50;;;;;;;;5024407;28;11485;-78
2021/03/15 02:57:23;;;;;;;;;11.25;11.25;;;;;;;;5022577;28;12060;-83
2021/03/15 02:59:52;;;;;;;;;9.75;9.75;;;;;;;;5015983;28;12280;-82
2021/03/15 03:02:20;;;;;;;;;11.25;11.25;;;;;;;;5023543;28;11462;-82
2021/03/15 03:04:48;;;;;;;;;14.75;10.75;;;;;;;;5024699;28;11700;-79
2021/03/15 03:07:17;;;;;;;;;9.25;9.25;;;;;;;;5022760;28;11640;-83
2021/03/15 03:09:44;;;;;;;;;11.50;10.00;;;;;;;;5023532;28;11599;-83
2021/03/15 03:12:12;;;;;;;;;12.00;11.50;;;;;;;;5024139;28;11350;-82
2021/03/15 03:14:41;;;;;;;;;12.25;10.00;;;;;;;;5022216;28;11615;-79
2021/03/15 03:17:10;;;;;;;;;13.25;10.50;;;;;;;;5022867;28;11272;-82
2021/03/15 03:19:37;;;;;;;;;12.25;10.50;;;;;;;;5022896;28;11513;-82
2021/03/15 03:22:05;;;;;;;;;13.00;11.50;;;;;;;;5024465;28;11497;-79
2021/03/15 03:24:34;;;;;;;;;10.75;9.50;;;;;;;;5020100;28;12281;-82
2021/03/15 03:27:02;;;;;;;;;10.25;10.00;;;;;;;;5018283;28;11498;-81
2021/03/15 03:29:29;;;;;;;;;13.25;11.00;;;;;;;;5020209;28;12439;-84
2021/03/15 03:31:58;;;;;;;;;7.75;7.75;;;;;;;;5023879;28;11482;-84
2021/03/15 03:34:25;;;;;;;;;10.75;10.75;;;;;;;;5021954;28;11332;-85
2021/03/15 03:36:51;;;;;;;;;9.75;9.75;;;;;;;;5019660;28;11541;-77
2021/03/15 03:39:19;;;;;;;;;10.25;10.25;;;;;;;;5021942;28;11519;-82
2021/03/15 03:41:46;;;;;;;;;13.00;9.00;;;;;;;;5020374;28;12490;-82
2021/03/15 03:44:13;;;;;;;;;11.75;9.50;;;;;;;;5020941;28;11489;-86
2021/03/15 03:46:41;;;;;;;;;10.50;10.00;;;;;;;;5024206;28;11272;-82
2021/03/15 03:49:09;;;;;;;;;11.00;11.00;;;;;;;;5023719;28;11514;-79
2021/03/15 03:51:45;;;;;;;;;11.75;11.75;;;;;;;;5025308;28;11195;-80
2021/03/15 03:54:15;;;;;;;;;15.00;11.00;;;;;;;;5022997;28;11216;-86
2021/03/15 03:56:49;;;;;;;;;15.25;13.00;;;;;;;;5021783;28;11475;-84
2021/03/15 03:59:19;;;;;;;;;12.50;9.75;;;;;;;;5013431;28;11277;-84
2021/03/15 04:01:50;;;;;;;;;13.00;10.75;;;;;;;;5018892;28;11227;-75
2021/03/15 04:04:20;;;;;;;;;9.00;9.00;;;;;;;;5023714;28;12081;-80
2021/03/15 04:06:50;;;;;;;;;13.00;11.00;;;;;;;;5023736;28;11311;-85
2021/03/15 04:09:25;;;;;;;;;10.25;10.25;;;;;;;;5023912;28;11056;-80
2021/03/15 04:11:56;;;;;;;;;16.25;12.25;;;;;;;;5018628;28;11133;-82
2021/03/15 04:14:26;;;;;;;;;12.75;11.25;;;;;;;;5016192;28;11266;-81
2021/03/15 04:16:53;;;;;;;;;10.25;10.25;;;;;;;;5021616;28;11236;-82
2021/03/15 04:19:26;;;;;;;;;10.25;10.00;;;;;;;;5024427;28;11234;-87
2021/03/15 04:21:57;;;;;;;;;10.00;10.00;;;;;;;;5021408;28;11165;-81
2021/03/15 04:24:24;;;;;;;;;19.25;11.25;;;;;;;;5023293;28;11564;-76
2021/03/15 04:26:52;;;;;;;;;10.25;10.00;;;;;;;;5020174;28;11273;-79
2021/03/15 04:29:20;;;;;;;;;16.00;14.25;;;;;;;;5019099;28;11178;-78
2021/03/15 04:31:47;;;;;;;;;11.00;10.00;;;;;;;;5021645;28;11134;-81
2021/03/15 04:34:15;;;;;;;;;9.00;9.00;;;;;;;;5020159;28;12012;-83
2021/03/15 04:36:43;;;;;;;;;12.50;11.50;;;;;;;;5023203;28;11305;-83
2021/03/15 04:39:10;;;;;;;;;5.50;5.50;;;;;;;;5022808;28;11171;-82
2021/03/15 04:41:38;;;;;;;;;11.00;9.75;;;;;;;;5020678;28;11106;-83
2021/03/15 04:44:07;;;;;;;;;11.50;7.75;;;;;;;;5018260;28;11480;-84
2021/03/15 04:46:34;;;;;;;;;14.00;9.75;;;;;;;;5020833;28;11133;-84
2021/03/15 04:49:07;;;;;;;;;11.25;9.25;;;;;;;;5023970;28;11182;-82
2021/03/15 04:51:36;;;;;;;;;8.50;7.00;;;;;;;;5021134;28;11272;-86
2021/03/15 04:54:03;;;;;;;;;13.25;10.00;;;;;;;;5016521;28;11178;-87
2021/03/15 04:56:31;;;;;;;;;14.00;11.00;;;;;;;;5019487;28;11507;-83
2021/03/15 04:58:59;;;;;;;;;11.50;8.25;;;;;;;;5021488;28;11515;-86
2021/03/15 05:01:30;;;;;;;;;13.00;7.50;;;;;;;;5014712;28;11064;-84
2021/03/15 05:03:58;;;;;;;;;15.75;7.75;;;;;;;;5016247;28;11584;-82
2021/03/15 05:06:26;;;;;;;;;8.50;8.50;;;;;;;;5023426;28;11081;-86
2021/03/15 05:08:55;;;;;;;;;12.00;10.00;;;;;;;;5025243;28;11262;-82
2021/03/15 05:11:26;;;;;;;;;11.00;9.25;;;;;;;;5025493;28;11331;-78
2021/03/15 05:13:53;;;;;;;;;7.25;5.75;;;;;;;;5024750;28;11213;-79
2021/03/15 05:16:21;;;;;;;;;12.50;10.25;;;;;;;;5025861;28;11024;-77
2021/03/15 05:18:51;;;;;;;;;8.25;8.25;;;;;;;;5031582;28;11318;-80
2021/03/15 05:21:19;;;;;;;;;11.25;7.75;;;;;;;;5025611;28;11113;-83
2021/03/15 05:23:46;;;;;;;;;12.50;11.00;;;;;;;;5023322;28;11140;-82
2021/03/15 05:26:14;;;;;;;;;14.75;11.50;;;;;;;;5023753;28;11154;-84
2021/03/15 05:28:41;;;;;;;;;11.00;9.75;;;;;;;;5023191;28;11204;-84
2021/03/15 05:31:08;;;;;;;;;10.00;8.00;;;;;;;;5025797;28;11063;-80
2021/03/15 05:33:37;;;;;;;;;12.50;10.50;;;;;;;;5024312;28;10967;-77
2021/03/15 05:36:09;;;;;;;;;10.25;10.25;;;;;;;;5026585;28;11206;-81
2021/03/15 05:38:37;;;;;;;;;12.25;12.25;;;;;;;;5024430;28;11871;-81
2021/03/15 05:41:05;;;;;;;;;11.25;10.25;;;;;;;;5026320;28;11229;-80
2021/03/15 05:43:34;;;;;;;;;14.25;10.50;;;;;;;;5020884;28;11811;-80
2021/03/15 05:46:48;;;;;;;;;13.50;11.25;;;;;;;;5024863;28;11198;-80
2021/03/15 05:50:03;;;;;;;;;11.75;9.25;;;;;;;;5039584;28;11316;-81
2021/03/15 05:52:57;;;;;;;;;12.75;10.00;;;;;;;;5026741;28;11040;-82
2021/03/15 05:55:45;;;;;;;;;14.75;14.00;;;;;;;;5020864;28;11337;-80
2021/03/15 05:59:00;;;;;;;;;10.00;8.75;;;;;;;;5013696;28;11641;-79
2021/03/15 06:01:56;;;;;;;;;9.75;9.25;;;;;;;;5005530;28;11196;-81
2021/03/15 06:04:45;;;;;;;;;14.25;9.75;;;;;;;;5015726;28;11212;-81
2021/03/15 06:07:14;;;;;;;;;12.00;12.00;;;;;;;;5021434;28;11330;-78
2021/03/15 06:10:06;;;;;;;;;11.25;10.50;;;;;;;;5015201;28;11559;-79
2021/03/15 06:12:39;;;;;;;;;10.25;10.00;;;;;;;;5021122;28;11202;-81
2021/03/15 06:15:07;;;;;;;;;14.25;10.00;;;;;;;;5019847;28;11164;-82
2021/03/15 06:17:35;;;;;;;;;12.00;12.00;;;;;;;;5020848;28;11513;-82
2021/03/15 06:20:05;;;;;;;;;11.00;9.25;;;;;;;;5024405;28;11606;-78
2021/03/15 06:22:34;;;;;;;;;12.25;8.00;;;;;;;;5023083;28;11580;-81
2021/03/15 06:25:03;;;;;;;;;9.00;9.00;;;;;;;;5021193;28;11577;-83
2021/03/15 06:27:31;;;;;;;;;9.50;7.25;;;;;;;;5015966;28;11710;-81
2021/03/15 06:29:58;;;;;;;;;9.00;7.00;;;;;;;;5020845;28;11497;-76
2021/03/15 06:32:27;;;;;;;;;9.25;9.25;;;;;;;;5021947;28;11193;-76
2021/03/15 06:34:56;;;;;;;;;11.50;11.25;;;;;;;;5021471;28;11301;-82
2021/03/15 06:37:24;;;;;;;;;12.75;9.00;;;;;;;;5021012;28;11203;-77
2021/03/15 06:39:51;;;;;;;;;12.00;7.00;;;;;;;;5019967;28;11226;-77
2021/03/15 06:42:20;;;;;;;;;6.50;6.50;;;;;;;;5021471;28;11209;-76
2021/03/15 06:44:47;;;;;;;;;6.00;5.25;;;;;;;;5021322;28;11176;-77
2021/03/15 06:47:15;;;;;;;;;4.50;4.50;;;;;;;;5023666;28;11204;-77
2021/03/15 06:49:42;;;;;;;;;9.75;7.00;;;;;;;;5023446;28;11025;-77
2021/03/15 06:52:10;;;;;;;;;9.50;7.50;;;;;;;;5022936;28;10999;-78
2021/03/15 06:54:37;;;;;;;;;5.00;5.00;;;;;;;;5022894;28;12228;-77
2021/03/15 06:57:15;;;;;;;;;6.00;6.00;;;;;;;;5022037;28;11210;-77
2021/03/15 06:59:50;;;;;;;;;7.75;7.25;;;;;;;;5021293;28;11001;-78
2021/03/15 07:02:28;;;;;;;;;7.75;7.50;;;;;;;;5021798;28;10991;-80
2021/03/15 07:04:56;;;;;;;;;6.00;6.00;;;;;;;;5017038;28;11824;-77
2021/03/15 07:07:24;;;;;;;;;4.50;4.00;;;;;;;;5019369;28;11094;-76
2021/03/15 07:09:52;;;;;;;;;6.50;6.25;;;;;;;;5017504;28;11753;-77
2021/03/15 07:12:20;;;;;;;;;7.50;7.25;;;;;;;;5020854;28;11069;-77
2021/03/15 07:14:49;;;;;;;;;3.00;3.00;;;;;;;;5019168;28;10984;-77
2021/03/15 07:17:24;;;;;;;;;6.25;6.25;;;;;;;;5025023;28;11064;-78
2021/03/15 07:19:51;;;;;;;;;8.75;7.00;;;;;;;;5023200;28;10919;-77
2021/03/15 07:22:20;;;;;;;;;7.50;5.75;;;;;;;;5023921;28;10794;-77
2021/03/15 07:25:02;;;;;;;;;10.75;7.25;;;;;;;;5019646;28;10840;-80
2021/03/15 07:27:30;;;;;;;;;10.00;7.00;;;;;;;;5020375;28;10949;-72
2021/03/15 07:29:59;;;;;;;;;7.00;6.00;;;;;;;;5013452;28;10887;-72
2021/03/15 07:32:39;;;;;;;;;7.00;5.00;;;;;;;;5020917;28;10816;-72
2021/03/15 07:35:21;;;;;;;;;6.25;5.25;;;;;;;;5017214;28;10872;-72
2021/03/15 07:37:48;;;;;;;;;8.25;6.00;;;;;;;;5023674;28;10704;-72
2021/03/15 07:40:34;;;;;;;;;7.00;7.00;;;;;;;;5022171;28;10732;-71
2021/03/15 07:43:02;;;;;;;;;7.00;7.00;;;;;;;;5018668;28;11337;-72
2021/03/15 07:45:35;;;;;;;;;6.00;6.00;;;;;;;;5019986;28;10717;-73
2021/03/15 07:48:07;;;;;;;;;10.00;6.00;;;;;;;;5023245;28;10681;-71
2021/03/15 07:50:34;;;;;;;;;6.00;6.00;;;;;;;;5020305;28;10765;-72
2021/03/15 07:53:02;;;;;;;;;7.00;7.00;;;;;;;;5019843;28;10643;-71
2021/03/15 07:55:39;;;;;;;;;10.75;8.00;;;;;;;;5017185;28;10676;-72
2021/03/15 07:58:27;;;;;;;;;5.75;5.75;;;;;;;;5022405;28;10750;-71
2021/03/15 08:00:57;;;;;;;;;6.50;6.50;;;;;;;;5014875;28;10417;-71
2021/03/15 08:03:28;;;;;;;;;6.00;3.00;;;;;;;;5021063;28;10541;-71
2021/03/15 08:05:57;;;;;;;;;2.75;2.75;;;;;;;;5017310;28;10553;-71
2021/03/15 08:08:23;;;;;;;;;3.25;3.25;;;;;;;;5021515;28;10475;-71
2021/03/15 08:10:51;;;;;;;;;9.00;7.00;;;;;;;;5022173;28;10368;-70
2021/03/15 08:13:20;;;;;;;;;7.75;6.00;;;;;;;;5022148;28;10399;-71
2021/03/15 08:15:48;;;;;;;;;5.00;5.00;;;;;;;;5021483;28;10610;-71
2021/03/15 08:18:21;;;;;;;;;10.25;6.00;;;;;;;;5022731;28;10267;-71
2021/03/15 08:20:51;;;;;;;;;2.25;2.25;;;;;;;;5013609;28;11017;-71
2021/03/15 08:23:19;;;;;;;;;6.75;5.00;;;;;;;;5012666;28;10588;-71
2021/03/15 08:25:47;;;;;;;;;7.25;6.75;;;;;;;;5021321;28;10706;-71
2021/03/15 08:28:20;;;;;;;;;9.00;5.75;;;;;;;;5018258;28;10818;-71
2021/03/15 08:30:54;;;;;;;;;5.75;5.75;;;;;;;;5022583;28;10506;-70
2021/03/15 08:33:22;;;;;;;;;6.50;2.25;;;;;;;;5021216;28;10721;-71
2021/03/15 08:35:51;;;;;;;;;5.00;2.75;;;;;;;;5021805;28;10514;-71
2021/03/15 08:38:19;;;;;;;;;2.00;2.00;;;;;;;;5020872;28;10724;-71
2021/03/15 08:41:00;;;;;;;;;3.50;2.00;;;;;;;;5019230;28;10612;-68
2021/03/15 08:43:40;;;;;;;;;3.00;3.00;;;;;;;;5019157;28;10512;-69
2021/03/15 08:46:09;;;;;;;;;3.75;2.00;;;;;;;;5023501;28;10529;-69
2021/03/15 08:48:57;;;;;;;;;4.00;2.00;;;;;;;;5026928;28;11294;-70
2021/03/15 08:51:56;;;;;;;;;5.00;5.00;;;;;;;;5026472;28;10527;-72
2021/03/15 08:54:40;;;;;;;;;1.00;1.00;;;;;;;;5019788;28;10618;-70
2021/03/15 08:57:10;;;;;;;;;2.00;2.00;;;;;;;;5024682;28;10262;-69
2021/03/15 08:59:37;;;;;;;;;0.50;0.50;;;;;;;;5014683;28;10473;-69
2021/03/15 09:02:05;;;;;;;;;1.75;1.75;;;;;;;;5026541;28;10292;-70
2021/03/15 09:04:43;;;;;;;;;1.00;1.00;;;;;;;;5023785;28;10460;-69
2021/03/15 09:07:29;;;;;;;;;3.00;1.00;;;;;;;;5025470;28;10533;-70
2021/03/15 09:09:56;;;;;;;;;12.25;11.50;;;;;;;;5022026;28;10562;-70
2021/03/15 09:12:24;;;;;;;;;5.00;5.00;;;;;;;;5021414;28;11013;-69
2021/03/15 09:14:56;;;;;;;;;3.00;3.00;;;;;;;;5023266;28;10479;-69
2021/03/15 09:17:34;;;;;;;;;3.00;3.00;;;;;;;;5025660;28;10650;-68
2021/03/15 09:20:20;;;;;;;;;3.75;2.00;;;;;;;;5025432;28;10448;-68
2021/03/15 09:22:47;;;;;;;;;5.25;5.25;;;;;;;;5019785;28;10450;-69
2021/03/15 09:25:23;;;;;;;;;6.25;4.75;;;;;;;;5024304;28;10519;-68
2021/03/15 09:27:55;;;;;;;;;8.50;5.25;;;;;;;;5019843;28;10297;-68
2021/03/15 09:30:25;;;;;;;;;9.00;8.00;;;;;;;;5023729;28;10268;-69
2021/03/15 09:32:53;;;;;;;;;11.00;11.00;;;;;;;;5021979;28;10537;-69
2021/03/15 09:35:37;;;;;;;;;5.50;5.50;;;;;;;;5024713;28;10479;-68
2021/03/15 09:38:05;;;;;;;;;5.25;5.25;;;;;;;;5023259;28;10332;-69
2021/03/15 09:40:36;;;;;;;;;8.50;7.00;;;;;;;;5023564;28;10282;-68
2021/03/15 09:43:03;;;;;;;;;8.75;7.00;;;;;;;;5021899;28;10344;-69
2021/03/15 09:45:34;;;;;;;;;6.00;6.00;;;;;;;;5022918;28;10207;-69
2021/03/15 09:48:01;;;;;;;;;9.00;7.50;;;;;;;;5025051;28;10304;-68
2021/03/15 09:50:29;;;;;;;;;5.00;4.50;;;;;;;;5024630;28;10196;-68
2021/03/15 09:53:13;;;;;;;;;1.75;1.00;;;;;;;;5022319;28;10102;-68
2021/03/15 09:55:40;;;;;;;;;0.00;0.00;;;;;;;;5019434;28;10112;-72
2021/03/15 09:58:08;;;;;;;;;0.00;0.00;;;;;;;;5018595;28;10322;-71
2021/03/15 10:00:36;;;;;;;;;1.00;1.00;;;;;;;;5023380;28;10539;-70
2021/03/15 10:03:03;;;;;;;;;0.00;0.00;;;;;;;;5025030;28;10850;-70
2021/03/15 10:05:31;;;;;;;;;1.00;1.00;;;;;;;;5023969;28;10851;-70
2021/03/15 10:07:58;;;;;;;;;0.25;0.25;;;;;;;;5023834;28;11022;-70
2021/03/15 10:10:26;;;;;;;;;0.00;0.00;;;;;;;;5025789;28;11795;-70
2021/03/15 10:13:02;;;;;;;;;0.00;0.00;;;;;;;;5020697;28;11151;-69
2021/03/15 10:15:29;;;;;;;;;0.00;0.00;;;;;;;;5021210;28;11095;-70
2021/03/15 10:17:56;;;;;;;;;1.00;1.00;;;;;;;;5024217;28;11760;-70
2021/03/15 10:20:27;;;;;;;;;0.25;0.25;;;;;;;;5025676;28;11106;-70
2021/03/15 10:22:55;;;;;;;;;1.00;1.00;;;;;;;;5025620;28;11468;-70
2021/03/15 10:25:21;;;;;;;;;1.00;1.00;;;;;;;;5022100;28;11069;-70
2021/03/15 10:27:57;;;;;;;;;2.25;2.00;;;;;;;;5022694;28;10900;-69
2021/03/15 10:30:29;;;;;;;;;6.00;6.00;;;;;;;;5021970;28;11748;-70
2021/03/15 10:32:57;;;;;;;;;11.25;10.00;;;;;;;;5025244;28;11081;-69
2021/03/15 10:35:25;;;;;;;;;0.00;0.00;;;;;;;;5023494;28;11519;-71
2021/03/15 10:37:53;;;;;;;;;5.75;5.50;;;;;;;;5022753;28;10915;-71
2021/03/15 10:40:23;;;;;;;;;0.75;0.75;;;;;;;;5019924;28;11080;-70
2021/03/15 10:42:50;;;;;;;;;2.00;2.00;;;;;;;;5023239;28;10765;-71
2021/03/15 10:45:18;;;;;;;;;2.00;1.00;;;;;;;;5023424;28;10969;-71
2021/03/15 10:47:45;;;;;;;;;2.00;2.00;;;;;;;;5026192;28;11721;-70
2021/03/15 10:50:25;;;;;;;;;1.00;1.00;;;;;;;;5026811;28;10836;-71
2021/03/15 10:52:52;;;;;;;;;1.00;1.00;;;;;;;;5024524;28;10658;-71
2021/03/15 10:55:21;;;;;;;;;0.75;0.75;;;;;;;;5025143;28;10515;-70
2021/03/15 10:58:10;;;;;;;;;1.00;1.00;;;;;;;;5018025;28;10537;-70
2021/03/15 11:00:40;;;;;;;;;2.75;1.75;;;;;;;;5017387;28;10421;-69
2021/03/15 11:03:08;;;;;;;;;8.50;8.50;;;;;;;;5023319;28;10624;-70
2021/03/15 11:05:35;;;;;;;;;5.50;3.00;;;;;;;;5022207;28;10717;-71
2021/03/15 11:08:03;;;;;;;;;2.00;2.00;;;;;;;;5019187;28;10580;-71
2021/03/15 11:10:31;;;;;;;;;3.50;2.25;;;;;;;;5018128;28;10583;-71
2021/03/15 11:12:59;;;;;;;;;12.75;12.25;;;;;;;;5021176;28;10455;-70
2021/03/15 11:15:35;;;;;;;;;16.75;16.75;;;;;;;;5022156;28;11816;-70
2021/03/15 11:18:11;;;;;;;;;20.00;16.00;;;;;;;;5019231;28;11012;-70
2021/03/15 11:20:50;;;;;;;;;13.50;10.00;;;;;;;;5022330;28;10921;-71
2021/03/15 11:23:32;;;;;;;;;5.00;2.00;;;;;;;;5020789;28;10669;-70
2021/03/15 11:26:00;;;;;;;;;15.50;14.00;;;;;;;;5012996;28;10463;-70
2021/03/15 11:28:32;;;;;;;;;20.00;19.50;;;;;;;;5014930;28;10875;-69
2021/03/15 11:30:59;;;;;;;;;10.25;9.00;;;;;;;;5021826;28;11004;-69
2021/03/15 11:33:29;;;;;;;;;7.00;6.00;;;;;;;;5026099;28;10646;-68
2021/03/15 11:35:59;;;;;;;;;11.75;11.75;;;;;;;;5025229;28;10488;-70
2021/03/15 11:38:27;;;;;;;;;17.50;13.75;;;;;;;;5023715;28;10687;-68
2021/03/15 11:40:55;;;;;;;;;1.00;1.00;;;;;;;;5017860;28;10751;-68
2021/03/15 11:43:23;;;;;;;;;3.00;1.50;;;;;;;;5018056;28;10303;-69
2021/03/15 11:45:50;;;;;;;;;3.00;2.25;;;;;;;;5022282;28;10366;-70
2021/03/15 11:48:17;;;;;;;;;2.50;2.50;;;;;;;;5019921;28;10371;-70
2021/03/15 11:50:45;;;;;;;;;5.00;4.25;;;;;;;;5023498;28;10204;-70
2021/03/15 11:53:12;;;;;;;;;7.50;7.50;;;;;;;;5019084;28;10150;-71
2021/03/15 11:55:38;;;;;;;;;4.00;4.00;;;;;;;;5020343;28;10248;-71
2021/03/15 11:58:06;;;;;;;;;4.25;2.75;;;;;;;;5016472;28;10262;-71
2021/03/15 12:00:33;;;;;;;;;5.50;3.25;;;;;;;;5018009;28;9727;-71
2021/03/15 12:03:02;;;;;;;;;3.75;3.75;;;;;;;;5022121;28;9668;-71
2021/03/15 12:05:29;;;;;;;;;14.00;14.00;;;;;;;;5022618;28;9825;-69
2021/03/15 12:07:57;;;;;;;;;8.00;6.25;;;;;;;;5020014;28;10089;-71
2021/03/15 12:10:24;;;;;;;;;6.00;3.00;;;;;;;;5015795;28;9569;-71
2021/03/15 12:12:50;;;;;;;;;6.25;4.00;;;;;;;;5019923;28;9636;-70
2021/03/15 12:15:18;;;;;;;;;2.25;2.25;;;;;;;;5019351;28;9601;-70
2021/03/15 12:17:45;;;;;;;;;3.00;3.00;;;;;;;;5021834;28;9682;-69
2021/03/15 12:20:12;;;;;;;;;6.75;4.00;;;;;;;;5021090;28;10566;-68
2021/03/15 12:22:39;;;;;;;;;3.50;1.75;;;;;;;;5020555;28;9972;-69
2021/03/15 12:25:10;;;;;;;;;13.00;10.75;;;;;;;;5018402;28;9693;-69
2021/03/15 12:27:37;;;;;;;;;3.75;3.75;;;;;;;;5015312;28;10164;-70
2021/03/15 12:30:05;;;;;;;;;4.50;2.50;;;;;;;;5021421;28;9795;-70
2021/03/15 12:32:32;;;;;;;;;3.00;3.00;;;;;;;;5020700;28;11148;-70
2021/03/15 12:34:58;;;;;;;;;4.50;3.00;;;;;;;;5022228;28;9794;-70
2021/03/15 12:37:25;;;;;;;;;6.25;6.25;;;;;;;;5018384;28;9944;-69
2021/03/15 12:39:52;;;;;;;;;6.00;6.00;;;;;;;;5018447;28;10404;-69
2021/03/15 12:42:20;;;;;;;;;11.00;11.00;;;;;;;;5013055;28;10538;-70
2021/03/15 12:44:47;;;;;;;;;3.00;3.00;;;;;;;;5019255;28;10935;-70
2021/03/15 12:47:14;;;;;;;;;4.00;4.00;;;;;;;;5022551;28;9710;-69
2021/03/15 12:49:42;;;;;;;;;6.75;3.25;;;;;;;;5018889;28;9633;-70
2021/03/15 12:52:09;;;;;;;;;3.25;3.25;;;;;;;;5023128;28;9546;-69
2021/03/15 12:54:36;;;;;;;;;12.25;9.50;;;;;;;;5022185;28;9578;-69
2021/03/15 12:57:03;;;;;;;;;2.00;2.00;;;;;;;;5021032;28;10358;-69
2021/03/15 12:59:31;;;;;;;;;19.00;14.50;;;;;;;;5021097;28;9386;-69
2021/03/15 13:01:58;;;;;;;;;9.50;8.00;;;;;;;;5020234;28;9515;-71
2021/03/15 13:04:25;;;;;;;;;6.00;6.00;;;;;;;;5021424;28;9779;-70
2021/03/15 13:06:52;;;;;;;;;2.00;2.00;;;;;;;;5019013;28;9439;-70
2021/03/15 13:09:19;;;;;;;;;6.75;6.75;;;;;;;;5021871;28;9497;-69
2021/03/15 13:11:46;;;;;;;;;7.00;7.00;;;;;;;;5018955;28;9588;-69
2021/03/15 13:14:13;;;;;;;;;7.50;7.50;;;;;;;;5017873;28;10391;-69
2021/03/15 13:16:41;;;;;;;;;2.00;2.00;;;;;;;;5021226;28;9702;-70
2021/03/15 13:19:08;;;;;;;;;18.50;18.50;;;;;;;;5020005;28;9761;-70
2021/03/15 13:21:34;;;;;;;;;4.00;4.00;;;;;;;;5022819;28;12290;-69
2021/03/15 13:24:01;;;;;;;;;12.00;10.75;;;;;;;;5018056;28;10112;-71
2021/03/15 13:26:28;;;;;;;;;4.50;4.50;;;;;;;;5013818;28;10445;-70
2021/03/15 13:28:55;;;;;;;;;7.50;7.50;;;;;;;;5020835;28;10357;-69
2021/03/15 13:31:22;;;;;;;;;5.00;2.50;;;;;;;;5025540;28;10340;-70
2021/03/15 13:33:50;;;;;;;;;3.75;3.75;;;;;;;;5023540;28;10458;-70
2021/03/15 13:36:16;;;;;;;;;6.00;3.25;;;;;;;;5024642;28;10340;-69
2021/03/15 13:38:43;;;;;;;;;5.00;4.50;;;;;;;;5026511;28;10233;-72
2021/03/15 13:41:10;;;;;;;;;7.25;6.25;;;;;;;;5025314;28;10563;-69
2021/03/15 13:43:37;;;;;;;;;5.00;5.00;;;;;;;;5020263;28;10418;-73
2021/03/15 13:46:04;;;;;;;;;11.50;8.75;;;;;;;;5025098;28;10182;-70
2021/03/15 13:48:31;;;;;;;;;4.25;4.25;;;;;;;;5024629;28;10420;-68
2021/03/15 13:50:59;;;;;;;;;3.00;3.00;;;;;;;;5025913;28;10194;-69
2021/03/15 13:53:26;;;;;;;;;6.00;6.00;;;;;;;;5021685;28;10983;-69
2021/03/15 13:55:53;;;;;;;;;5.00;5.00;;;;;;;;5024784;28;10105;-69
2021/03/15 13:58:20;;;;;;;;;4.00;4.00;;;;;;;;5019597;28;10147;-70
2021/03/15 14:00:47;;;;;;;;;4.50;4.50;;;;;;;;5022031;28;10369;-69
2021/03/15 14:03:14;;;;;;;;;2.50;2.50;;;;;;;;5024441;28;10393;-70
2021/03/15 14:05:40;;;;;;;;;3.00;3.00;;;;;;;;5025250;28;10192;-69
2021/03/15 14:08:08;;;;;;;;;6.25;6.25;;;;;;;;5024997;28;10353;-69
2021/03/15 14:10:35;;;;;;;;;8.00;8.00;;;;;;;;5025201;28;10562;-69
2021/03/15 14:13:02;;;;;;;;;10.75;8.50;;;;;;;;5023921;28;10552;-69
2021/03/15 14:15:29;;;;;;;;;5.25;5.25;;;;;;;;5021143;28;10312;-69
2021/03/15 14:17:56;;;;;;;;;4.75;4.75;;;;;;;;5015002;28;10444;-69
2021/03/15 14:20:23;;;;;;;;;0.00;0.00;;;;;;;;5024979;28;11049;-69
2021/03/15 14:22:50;;;;;;;;;0.00;0.00;;;;;;;;5025428;28;10327;-69
2021/03/15 14:25:18;;;;;;;;;3.00;2.00;;;;;;;;5021596;28;10462;-70
2021/03/15 14:27:45;;;;;;;;;1.00;1.00;;;;;;;;5016195;28;10845;-69
2021/03/15 14:30:13;;;;;;;;;1.00;1.00;;;;;;;;5016914;28;10865;-69
2021/03/15 14:32:40;;;;;;;;;0.00;0.00;;;;;;;;5024404;28;11642;-71
2021/03/15 14:35:08;;;;;;;;;2.25;0.00;;;;;;;;5025496;28;10947;-69
2021/03/15 14:37:35;;;;;;;;;0.00;0.00;;;;;;;;5024368;28;10833;-70
2021/03/15 14:40:03;;;;;;;;;2.50;0.75;;;;;;;;5024834;28;10925;-69
2021/03/15 14:42:33;;;;;;;;;1.00;1.00;;;;;;;;5023424;28;10968;-70
2021/03/15 14:45:00;;;;;;;;;0.75;0.25;;;;;;;;5023083;28;10768;-70
2021/03/15 14:47:27;;;;;;;;;0.00;0.00;;;;;;;;5024727;28;10760;-70
2021/03/15 14:49:54;;;;;;;;;1.00;1.00;;;;;;;;5024732;28;10523;-70
2021/03/15 14:52:21;;;;;;;;;5.50;4.50;;;;;;;;5024400;28;10658;-70
2021/03/15 14:54:47;;;;;;;;;6.00;3.00;;;;;;;;5021360;28;10376;-70